Time;durP1;ratioP1;P1;durP2;ratioP2;P2;SDS_P1;SDS_P2;PMS_P1;PMS_P2;Temp;Humidity;BMP_temperature;BMP_pressure;BME280_temperature;BME280_humidity;BME280_pressure;Samples;Min_cycle;Max_cycle;Signal;HPM_P1;HPM_P2
2024/01/14 00:02:25;;;;;;;1.58;1.48;;;6.50;99.90;;;;;;4978518;28;20076;-90
2024/01/14 00:04:51;;;;;;;1.63;1.52;;;6.50;99.90;;;;;;4977517;28;20054;-89
2024/01/14 00:07:17;;;;;;;1.58;1.48;;;6.90;99.90;;;;;;4978098;28;20057;-89
2024/01/14 00:09:42;;;;;;;1.67;1.58;;;6.50;99.90;;;;;;4976031;28;20454;-89
2024/01/14 00:12:08;;;;;;;1.30;1.30;;;7.00;99.90;;;;;;4993509;28;20464;-91
2024/01/14 00:14:34;;;;;;;1.60;1.50;;;6.80;99.90;;;;;;4976825;28;20591;-88
2024/01/14 00:16:59;;;;;;;1.38;1.35;;;6.80;99.90;;;;;;4996023;28;20057;-90
2024/01/14 00:19:25;;;;;;;1.60;1.50;;;6.90;99.90;;;;;;4980798;28;20481;-90
2024/01/14 00:21:51;;;;;;;1.60;1.50;;;7.20;99.90;;;;;;4994932;28;20050;-89
2024/01/14 00:24:17;;;;;;;1.55;1.45;;;6.90;99.90;;;;;;4993324;28;20046;-89
2024/01/14 00:26:42;;;;;;;1.67;1.58;;;6.90;99.90;;;;;;4976364;28;20042;-90
2024/01/14 00:29:08;;;;;;;1.60;1.50;;;6.90;99.90;;;;;;4977642;28;20144;-89
2024/01/14 00:31:34;;;;;;;1.60;1.50;;;6.80;99.90;;;;;;4977285;28;20038;-87
2024/01/14 00:34:00;;;;;;;1.50;1.40;;;7.20;99.90;;;;;;4977019;28;20569;-90
2024/01/14 00:36:25;;;;;;;1.60;1.50;;;6.80;99.90;;;;;;4976515;28;20053;-90
2024/01/14 00:38:51;;;;;;;1.45;1.40;;;7.10;99.90;;;;;;4976476;28;20552;-92
2024/01/14 00:41:17;;;;;;;1.65;1.55;;;6.60;99.90;;;;;;4992479;28;20141;-89
2024/01/14 00:43:43;;;;;;;1.67;1.58;;;6.60;99.90;;;;;;4995528;28;20608;-89
2024/01/14 00:46:09;;;;;;;1.60;1.50;;;7.10;99.90;;;;;;4994402;28;20120;-90
2024/01/14 00:48:35;;;;;;;1.73;1.63;;;7.10;99.90;;;;;;4977650;28;20555;-89
2024/01/14 00:51:00;;;;;;;1.58;1.48;;;6.70;99.90;;;;;;4978431;28;21392;-88
2024/01/14 00:53:26;;;;;;;1.65;1.55;;;7.10;99.90;;;;;;4994414;28;20478;-89
2024/01/14 00:55:52;;;;;;;1.40;1.35;;;7.00;99.90;;;;;;4992825;28;20084;-88
2024/01/14 00:58:18;;;;;;;1.70;1.60;;;7.10;99.90;;;;;;4991943;28;20042;-91
2024/01/14 01:00:44;;;;;;;1.70;1.60;;;6.70;99.90;;;;;;4991702;28;20042;-90
2024/01/14 01:03:09;;;;;;;1.70;1.60;;;7.10;99.90;;;;;;5008439;28;20443;-90
2024/01/14 01:05:35;;;;;;;1.70;1.60;;;6.80;99.90;;;;;;4975482;28;20431;-89
2024/01/14 01:08:02;;;;;;;1.65;1.55;;;7.20;99.90;;;;;;4976872;28;20207;-89
2024/01/14 01:10:27;;;;;;;1.65;1.55;;;6.90;99.90;;;;;;4974746;28;20053;-89
2024/01/14 01:12:53;;;;;;;1.67;1.58;;;7.20;99.90;;;;;;4971824;28;20049;-91
2024/01/14 01:15:19;;;;;;;1.65;1.55;;;6.70;99.90;;;;;;4970595;28;20105;-91
2024/01/14 01:17:45;;;;;;;1.75;1.65;;;6.90;99.90;;;;;;4973053;28;20509;-90
2024/01/14 01:20:11;;;;;;;1.70;1.60;;;6.90;99.90;;;;;;4988517;28;20054;-89
2024/01/14 01:22:37;;;;;;;1.75;1.65;;;6.90;99.90;;;;;;4973477;28;20046;-90
2024/01/14 01:25:03;;;;;;;1.70;1.60;;;7.10;99.90;;;;;;4978402;28;20038;-89
2024/01/14 01:27:29;;;;;;;1.42;1.40;;;7.00;99.90;;;;;;4993132;28;20041;-91
2024/01/14 01:30:26;;;;;;;1.70;1.60;;;7.10;99.90;;;;;;4993791;28;20060;-90
2024/01/14 01:32:52;;;;;;;1.67;1.58;;;7.20;99.90;;;;;;4968975;28;20049;-90
2024/01/14 01:35:18;;;;;;;1.67;1.58;;;7.40;99.90;;;;;;4978423;28;20034;-90
2024/01/14 01:37:44;;;;;;;1.80;1.70;;;7.20;99.90;;;;;;4993074;28;20039;-89
2024/01/14 01:40:11;;;;;;;1.70;1.60;;;7.40;99.90;;;;;;4976616;28;20049;-90
2024/01/14 01:42:37;;;;;;;1.77;1.67;;;7.20;99.90;;;;;;4978509;28;20046;-89
2024/01/14 01:45:03;;;;;;;1.60;1.50;;;7.40;99.90;;;;;;4990646;28;20042;-88
2024/01/14 01:47:30;;;;;;;1.40;1.40;;;7.50;99.90;;;;;;4991175;28;20081;-90
2024/01/14 01:49:55;;;;;;;1.35;1.35;;;7.20;99.90;;;;;;4992089;28;20042;-89
2024/01/14 01:52:23;;;;;;;1.77;1.67;;;7.50;99.90;;;;;;4974927;28;20053;-89
2024/01/14 01:54:50;;;;;;;1.50;1.40;;;7.30;99.90;;;;;;4977028;28;20501;-89
2024/01/14 01:57:17;;;;;;;1.83;1.73;;;7.20;99.90;;;;;;4974878;28;20402;-89
2024/01/14 01:59:45;;;;;;;1.50;1.40;;;7.20;99.90;;;;;;4990444;28;20045;-88
2024/01/14 02:02:11;;;;;;;1.77;1.67;;;7.50;99.90;;;;;;4990313;28;20173;-89
2024/01/14 02:04:38;;;;;;;1.73;1.63;;;7.30;99.90;;;;;;4975018;28;20045;-88
2024/01/14 02:07:05;;;;;;;1.48;1.38;;;7.40;99.90;;;;;;4989445;28;20041;-89
2024/01/14 02:09:34;;;;;;;1.50;1.40;;;7.50;99.90;;;;;;4974807;28;20073;-89
2024/01/14 02:12:00;;;;;;;1.83;1.73;;;7.50;99.90;;;;;;4969084;28;20076;-89
2024/01/14 02:14:26;;;;;;;1.67;1.58;;;7.40;99.90;;;;;;4991693;28;20551;-89
2024/01/14 02:16:55;;;;;;;1.35;1.35;;;7.30;99.90;;;;;;4988791;28;20041;-90
2024/01/14 02:19:21;;;;;;;1.30;1.30;;;7.20;99.90;;;;;;4989901;28;20045;-89
2024/01/14 02:21:52;;;;;;;1.65;1.55;;;7.10;99.90;;;;;;4990737;28;20049;-87
2024/01/14 02:24:29;;;;;;;1.77;1.67;;;7.30;99.90;;;;;;4973349;28;20049;-89
2024/01/14 02:26:55;;;;;;;1.75;1.65;;;7.20;99.90;;;;;;4989343;28;20050;-89
2024/01/14 02:29:21;;;;;;;1.42;1.38;;;7.30;99.90;;;;;;4976115;28;20495;-89
2024/01/14 02:31:47;;;;;;;1.30;1.30;;;7.40;99.90;;;;;;4975519;28;20054;-88
2024/01/14 02:34:14;;;;;;;1.85;1.75;;;7.30;99.90;;;;;;4974101;28;20050;-89
2024/01/14 02:36:40;;;;;;;1.67;1.58;;;7.30;99.90;;;;;;4974552;28;20049;-89
2024/01/14 02:39:06;;;;;;;2.03;1.92;;;7.30;99.90;;;;;;4990529;28;20590;-89
2024/01/14 02:41:33;;;;;;;1.75;1.65;;;7.30;99.90;;;;;;4994504;28;20046;-87
2024/01/14 02:43:58;;;;;;;1.77;1.67;;;7.20;99.90;;;;;;4990494;28;20100;-89
2024/01/14 02:46:24;;;;;;;1.77;1.67;;;7.10;99.90;;;;;;4970103;28;20054;-89
2024/01/14 02:48:50;;;;;;;1.75;1.65;;;7.30;99.90;;;;;;4990841;28;20049;-88
2024/01/14 02:51:17;;;;;;;1.83;1.73;;;7.00;99.90;;;;;;4975902;28;20049;-89
2024/01/14 02:53:43;;;;;;;1.88;1.77;;;7.10;99.90;;;;;;4975054;28;20050;-89
2024/01/14 02:56:10;;;;;;;1.67;1.58;;;7.40;99.90;;;;;;4974137;28;20113;-89
2024/01/14 02:58:36;;;;;;;1.50;1.40;;;7.10;99.90;;;;;;5010918;28;20061;-89
2024/01/14 03:01:02;;;;;;;1.50;1.40;;;7.30;99.90;;;;;;4990643;28;20654;-89
2024/01/14 03:03:28;;;;;;;1.83;1.73;;;7.20;99.90;;;;;;4970991;28;20038;-89
2024/01/14 03:05:53;;;;;;;1.50;1.40;;;7.30;99.90;;;;;;4973947;28;20049;-89
2024/01/14 03:08:19;;;;;;;1.60;1.50;;;7.20;99.90;;;;;;4973773;28;20532;-89
2024/01/14 03:10:45;;;;;;;1.85;1.75;;;7.00;99.90;;;;;;4990492;28;20135;-90
2024/01/14 03:13:14;;;;;;;1.50;1.40;;;7.00;99.90;;;;;;4987920;28;20073;-88
2024/01/14 03:15:40;;;;;;;1.83;1.73;;;6.90;99.90;;;;;;4976427;28;20072;-89
2024/01/14 03:18:05;;;;;;;1.58;1.48;;;7.10;99.90;;;;;;4972411;28;20443;-89
2024/01/14 03:20:32;;;;;;;1.50;1.40;;;6.90;99.90;;;;;;4975009;28;20153;-88
2024/01/14 03:22:58;;;;;;;1.85;1.75;;;6.90;99.90;;;;;;4974507;28;20045;-89
2024/01/14 03:25:24;;;;;;;1.50;1.40;;;6.90;99.90;;;;;;4989141;28;20030;-89
2024/01/14 03:27:49;;;;;;;1.80;1.70;;;6.60;99.90;;;;;;4987947;28;20144;-88
2024/01/14 03:30:15;;;;;;;1.73;1.63;;;6.70;99.90;;;;;;4971668;28;20046;-88
2024/01/14 03:32:41;;;;;;;1.70;1.60;;;6.80;99.90;;;;;;4993652;28;20129;-88
2024/01/14 03:35:07;;;;;;;1.75;1.65;;;6.80;99.90;;;;;;4974593;28;20128;-89
2024/01/14 03:37:32;;;;;;;1.45;1.40;;;6.70;99.90;;;;;;4973561;28;20121;-89
2024/01/14 03:39:58;;;;;;;1.60;1.50;;;6.90;99.90;;;;;;4991030;28;20045;-89
2024/01/14 03:42:24;;;;;;;1.75;1.65;;;6.70;99.90;;;;;;4973870;28;20099;-89
2024/01/14 03:44:50;;;;;;;1.70;1.60;;;6.70;99.90;;;;;;4975507;28;20034;-88
2024/01/14 03:47:19;;;;;;;1.60;1.50;;;6.60;99.90;;;;;;5006737;28;20045;-88
2024/01/14 03:49:44;;;;;;;1.73;1.63;;;6.70;99.90;;;;;;4970882;28;20050;-88
2024/01/14 03:52:10;;;;;;;1.70;1.60;;;6.50;99.90;;;;;;4974633;28;20065;-88
2024/01/14 03:54:36;;;;;;;1.70;1.60;;;6.40;99.90;;;;;;4973966;28;20103;-88
2024/01/14 03:57:01;;;;;;;1.80;1.70;;;6.40;99.90;;;;;;4988075;28;20045;-88
2024/01/14 03:59:27;;;;;;;1.70;1.60;;;6.70;99.90;;;;;;4973673;28;20450;-88
2024/01/14 04:01:53;;;;;;;1.60;1.50;;;6.70;99.90;;;;;;4973740;28;20042;-88
2024/01/14 04:04:18;;;;;;;1.70;1.60;;;6.80;99.90;;;;;;4990904;28;20144;-88
2024/01/14 04:06:44;;;;;;;1.80;1.70;;;6.80;99.90;;;;;;4992036;28;20038;-89
2024/01/14 04:09:10;;;;;;;1.83;1.73;;;6.60;99.90;;;;;;4977079;28;20049;-88
2024/01/14 04:11:45;;;;;;;1.80;1.70;;;6.70;99.90;;;;;;4978904;28;20101;-89
2024/01/14 04:14:12;;;;;;;1.83;1.73;;;6.60;99.90;;;;;;4987045;28;20042;-89
2024/01/14 04:16:39;;;;;;;1.80;1.70;;;6.80;99.90;;;;;;4995337;28;20077;-88
2024/01/14 04:19:05;;;;;;;1.85;1.75;;;6.70;99.90;;;;;;4977242;28;20050;-89
2024/01/14 04:21:31;;;;;;;1.88;1.77;;;6.80;99.90;;;;;;4994046;28;20042;-87
2024/01/14 04:23:58;;;;;;;1.70;1.60;;;6.50;99.90;;;;;;4993911;28;20045;-87
2024/01/14 04:26:24;;;;;;;1.90;1.80;;;6.60;99.90;;;;;;4977533;28;20046;-88
2024/01/14 04:28:51;;;;;;;1.80;1.70;;;6.50;99.90;;;;;;4992948;28;20045;-88
2024/01/14 04:31:17;;;;;;;1.83;1.73;;;6.50;99.90;;;;;;4991369;28;20046;-88
2024/01/14 04:33:43;;;;;;;1.77;1.67;;;6.80;99.90;;;;;;4976652;28;20073;-89
2024/01/14 04:36:09;;;;;;;2.00;1.90;;;6.60;99.90;;;;;;4994721;28;20752;-88
2024/01/14 04:38:35;;;;;;;1.85;1.75;;;6.90;99.90;;;;;;4977138;28;20104;-88
2024/01/14 04:41:01;;;;;;;1.80;1.70;;;6.70;99.90;;;;;;4977599;28;20046;-88
2024/01/14 04:43:28;;;;;;;1.75;1.65;;;6.90;99.90;;;;;;4977125;28;20038;-88
2024/01/14 04:45:53;;;;;;;1.80;1.70;;;6.60;99.90;;;;;;4976980;28;20463;-88
2024/01/14 04:48:19;;;;;;;1.92;1.83;;;6.70;99.90;;;;;;4996267;28;20050;-90
2024/01/14 04:50:45;;;;;;;1.90;1.80;;;6.80;99.90;;;;;;4977667;28;20057;-87
2024/01/14 04:53:11;;;;;;;1.80;1.70;;;7.00;99.90;;;;;;4989678;28;20137;-88
2024/01/14 04:55:37;;;;;;;1.65;1.55;;;7.00;99.90;;;;;;4992093;28;20044;-89
2024/01/14 04:58:03;;;;;;;1.80;1.70;;;6.80;99.90;;;;;;4974981;28;20049;-89
2024/01/14 05:00:29;;;;;;;1.75;1.65;;;6.70;99.90;;;;;;4974489;28;20042;-88
2024/01/14 05:02:55;;;;;;;1.80;1.70;;;6.80;99.90;;;;;;4991558;28;20081;-88
2024/01/14 05:05:21;;;;;;;1.83;1.73;;;6.80;99.90;;;;;;4993520;28;20037;-88
2024/01/14 05:07:47;;;;;;;1.73;1.63;;;6.70;99.90;;;;;;4990404;28;20503;-88
2024/01/14 05:10:13;;;;;;;1.80;1.70;;;6.70;99.90;;;;;;4984588;28;20458;-88
2024/01/14 05:12:38;;;;;;;1.83;1.73;;;6.80;99.90;;;;;;4975412;28;20046;-87
2024/01/14 05:15:05;;;;;;;1.88;1.77;;;7.10;99.90;;;;;;4992352;28;20117;-89
2024/01/14 05:17:31;;;;;;;1.60;1.50;;;6.90;99.90;;;;;;4991990;28;20107;-88
2024/01/14 05:19:56;;;;;;;1.65;1.55;;;6.80;99.90;;;;;;4988290;28;20700;-89
2024/01/14 05:22:22;;;;;;;1.83;1.73;;;6.90;99.90;;;;;;4974380;28;20054;-89
2024/01/14 05:24:50;;;;;;;1.83;1.73;;;7.10;99.90;;;;;;4992574;28;20467;-89
2024/01/14 05:27:16;;;;;;;1.90;1.80;;;7.10;99.90;;;;;;4975368;28;20048;-89
2024/01/14 05:29:43;;;;;;;1.70;1.60;;;7.10;99.90;;;;;;4988760;28;20054;-89
2024/01/14 05:32:13;;;;;;;1.92;1.83;;;6.70;99.90;;;;;;4973474;28;20133;-88
2024/01/14 05:34:39;;;;;;;1.90;1.80;;;7.00;99.90;;;;;;4986886;28;20061;-89
2024/01/14 05:37:05;;;;;;;1.80;1.70;;;6.90;99.90;;;;;;4977181;28;20139;-89
2024/01/14 05:39:32;;;;;;;1.80;1.70;;;7.10;99.90;;;;;;4991685;28;20056;-89
2024/01/14 05:41:58;;;;;;;1.88;1.77;;;7.10;99.90;;;;;;4991894;28;20054;-89
2024/01/14 05:44:24;;;;;;;1.80;1.70;;;7.10;99.90;;;;;;4976320;28;20133;-90
2024/01/14 05:46:50;;;;;;;1.90;1.80;;;7.10;99.90;;;;;;4992539;28;20053;-89
2024/01/14 05:49:15;;;;;;;1.60;1.50;;;6.80;99.90;;;;;;4993571;28;20041;-89
2024/01/14 05:51:41;;;;;;;1.77;1.67;;;7.00;99.90;;;;;;4973358;28;20057;-88
2024/01/14 05:54:07;;;;;;;1.80;1.70;;;7.20;99.90;;;;;;4975623;28;20046;-88
2024/01/14 05:56:33;;;;;;;1.83;1.73;;;7.10;99.90;;;;;;4992855;28;20188;-90
2024/01/14 05:59:00;;;;;;;1.80;1.70;;;7.10;99.90;;;;;;4993491;28;20066;-88
2024/01/14 06:01:27;;;;;;;1.80;1.70;;;6.70;99.90;;;;;;4972364;28;20184;-89
2024/01/14 06:03:53;;;;;;;1.58;1.48;;;6.70;99.90;;;;;;4990879;28;20050;-89
2024/01/14 06:06:19;;;;;;;1.90;1.80;;;6.90;99.90;;;;;;4977556;28;20215;-89
2024/01/14 06:08:45;;;;;;;1.85;1.75;;;6.60;99.90;;;;;;4974864;28;20046;-88
2024/01/14 06:11:12;;;;;;;1.85;1.75;;;6.80;99.90;;;;;;4991458;28;20111;-89
2024/01/14 06:13:38;;;;;;;1.83;1.73;;;6.90;99.90;;;;;;4976950;28;20495;-89
2024/01/14 06:16:04;;;;;;;1.90;1.80;;;6.60;99.90;;;;;;4976128;28;20042;-88
2024/01/14 06:18:30;;;;;;;1.83;1.73;;;6.80;99.90;;;;;;4976354;28;20085;-90
2024/01/14 06:20:59;;;;;;;1.65;1.55;;;6.60;99.90;;;;;;4990330;28;20057;-89
2024/01/14 06:23:25;;;;;;;1.85;1.75;;;7.10;99.90;;;;;;4992356;28;20054;-90
2024/01/14 06:25:51;;;;;;;1.90;1.80;;;6.80;99.90;;;;;;4972609;28;20096;-89
2024/01/14 06:28:17;;;;;;;1.70;1.60;;;7.20;99.90;;;;;;4990041;28;20045;-89
2024/01/14 06:30:43;;;;;;;1.83;1.73;;;6.80;99.90;;;;;;4990372;28;20050;-88
2024/01/14 06:33:09;;;;;;;1.90;1.80;;;6.80;99.90;;;;;;4974937;28;20123;-88
2024/01/14 06:35:35;;;;;;;1.90;1.80;;;6.80;99.90;;;;;;4973823;28;20064;-87
2024/01/14 06:38:01;;;;;;;1.85;1.75;;;7.10;99.90;;;;;;4972803;28;20651;-89
2024/01/14 06:40:27;;;;;;;1.88;1.77;;;6.70;99.90;;;;;;4989668;28;20129;-88
2024/01/14 06:42:52;;;;;;;1.60;1.50;;;7.00;99.90;;;;;;4989267;28;20139;-88
2024/01/14 06:45:18;;;;;;;1.73;1.63;;;6.70;99.90;;;;;;4972541;28;20057;-89
2024/01/14 06:47:44;;;;;;;1.80;1.70;;;7.20;99.90;;;;;;4989552;28;20060;-88
2024/01/14 06:50:11;;;;;;;1.60;1.50;;;7.20;99.90;;;;;;4977248;28;20046;-89
2024/01/14 06:52:37;;;;;;;1.92;1.83;;;7.10;99.90;;;;;;4991160;28;20054;-89
2024/01/14 06:55:06;;;;;;;1.92;1.83;;;6.80;99.90;;;;;;4974311;28;20115;-88
2024/01/14 06:57:33;;;;;;;1.80;1.70;;;6.80;99.90;;;;;;4975885;28;20049;-89
2024/01/14 07:00:00;;;;;;;1.80;1.70;;;6.60;99.90;;;;;;4974181;28;20042;-87
2024/01/14 07:02:26;;;;;;;1.90;1.80;;;6.80;99.90;;;;;;4975828;28;20044;-89
2024/01/14 07:04:52;;;;;;;2.03;1.92;;;6.70;99.90;;;;;;4976285;28;20491;-88
2024/01/14 07:07:18;;;;;;;1.83;1.73;;;6.50;99.90;;;;;;4975473;28;22651;-90
2024/01/14 07:09:44;;;;;;;1.92;1.83;;;6.80;99.90;;;;;;4989841;28;20052;-89
2024/01/14 07:12:10;;;;;;;1.98;1.88;;;6.60;99.90;;;;;;4972799;28;20049;-89
2024/01/14 07:14:35;;;;;;;1.92;1.83;;;6.50;99.90;;;;;;4988616;28;20500;-89
2024/01/14 07:17:01;;;;;;;1.60;1.50;;;7.00;99.90;;;;;;4974441;28;20049;-89
2024/01/14 07:19:27;;;;;;;1.60;1.50;;;6.60;99.90;;;;;;4989722;28;20076;-87
2024/01/14 07:21:52;;;;;;;1.83;1.73;;;6.50;99.90;;;;;;4991449;28;20705;-88
2024/01/14 07:24:18;;;;;;;1.60;1.50;;;7.10;99.90;;;;;;4975670;28;20050;-89
2024/01/14 07:26:44;;;;;;;1.95;1.85;;;6.50;99.90;;;;;;4975094;28;20072;-89
2024/01/14 07:29:09;;;;;;;1.63;1.52;;;6.70;99.90;;;;;;4975863;28;20069;-89
2024/01/14 07:31:35;;;;;;;1.60;1.50;;;7.00;99.90;;;;;;4973840;28;20144;-89
2024/01/14 07:34:01;;;;;;;1.63;1.52;;;7.10;99.90;;;;;;4975600;28;20041;-89
2024/01/14 07:36:27;;;;;;;1.83;1.73;;;7.00;99.90;;;;;;4991397;28;20045;-90
2024/01/14 07:38:54;;;;;;;1.50;1.40;;;6.60;99.90;;;;;;4992519;28;20050;-90
2024/01/14 07:41:19;;;;;;;1.83;1.73;;;6.60;99.90;;;;;;4978312;28;20042;-89
2024/01/14 07:43:46;;;;;;;1.55;1.45;;;6.80;99.90;;;;;;4979543;28;20104;-89
2024/01/14 07:46:12;;;;;;;1.50;1.40;;;7.20;99.90;;;;;;4977633;28;20048;-92
2024/01/14 07:48:37;;;;;;;1.73;1.63;;;7.30;99.90;;;;;;4977637;28;20042;-90
2024/01/14 07:51:04;;;;;;;1.50;1.40;;;7.30;99.90;;;;;;4995196;28;20501;-89
2024/01/14 07:53:30;;;;;;;1.83;1.73;;;7.20;99.90;;;;;;4979323;28;20081;-88
2024/01/14 07:55:56;;;;;;;1.80;1.70;;;6.90;99.90;;;;;;4979531;28;20143;-89
2024/01/14 07:58:21;;;;;;;1.90;1.80;;;7.00;99.90;;;;;;4994221;28;20503;-88
2024/01/14 08:00:47;;;;;;;1.85;1.75;;;7.10;99.90;;;;;;4979014;28;20077;-88
2024/01/14 08:03:13;;;;;;;1.77;1.67;;;6.80;99.90;;;;;;4993861;28;20042;-89
2024/01/14 08:05:39;;;;;;;1.83;1.73;;;6.70;99.90;;;;;;4994961;28;20044;-90
2024/01/14 08:08:05;;;;;;;1.50;1.40;;;7.00;99.90;;;;;;4977502;28;20045;-91
2024/01/14 08:10:32;;;;;;;1.95;1.85;;;7.40;99.90;;;;;;4978429;28;20041;-90
2024/01/14 08:12:58;;;;;;;1.60;1.50;;;6.80;99.90;;;;;;4993201;28;20046;-89
2024/01/14 08:15:24;;;;;;;1.77;1.67;;;6.80;99.90;;;;;;4993414;28;20468;-89
2024/01/14 08:17:50;;;;;;;1.90;1.80;;;6.90;99.90;;;;;;4975269;28;20056;-89
2024/01/14 08:20:15;;;;;;;1.83;1.73;;;7.50;99.90;;;;;;4992195;28;20129;-89
2024/01/14 08:22:41;;;;;;;1.60;1.50;;;7.50;99.90;;;;;;4993768;28;20053;-89
2024/01/14 08:25:10;;;;;;;1.60;1.50;;;7.60;99.90;;;;;;4981541;28;20044;-90
2024/01/14 08:27:38;;;;;;;1.98;1.88;;;7.50;99.90;;;;;;4977929;28;20080;-91
2024/01/14 08:30:07;;;;;;;1.92;1.83;;;7.10;99.90;;;;;;4978570;28;20064;-89
2024/01/14 08:32:33;;;;;;;1.98;1.88;;;7.00;99.90;;;;;;4976857;28;20058;-88
2024/01/14 08:34:59;;;;;;;1.92;1.83;;;7.70;99.90;;;;;;4992305;28;20050;-91
2024/01/14 08:37:28;;;;;;;1.95;1.85;;;7.10;99.90;;;;;;4976079;28;20510;-90
2024/01/14 08:39:54;;;;;;;1.50;1.40;;;7.30;99.90;;;;;;4994356;28;20042;-89
2024/01/14 08:42:20;;;;;;;1.73;1.63;;;7.60;99.90;;;;;;4993787;28;20046;-88
2024/01/14 08:44:48;;;;;;;2.00;1.90;;;7.70;99.90;;;;;;4980005;28;20874;-89
2024/01/14 08:47:14;;;;;;;1.85;1.75;;;7.50;99.90;;;;;;4996097;28;20063;-88
2024/01/14 08:49:42;;;;;;;2.03;1.92;;;7.10;99.90;;;;;;4975613;28;20499;-91
2024/01/14 08:52:08;;;;;;;1.60;1.50;;;7.70;99.90;;;;;;4976168;28;20049;-90
2024/01/14 08:54:37;;;;;;;2.05;1.95;;;7.20;99.90;;;;;;4979341;28;20050;-90
2024/01/14 08:57:03;;;;;;;2.08;1.98;;;7.70;99.90;;;;;;4976648;28;20045;-90
2024/01/14 08:59:29;;;;;;;2.10;2.00;;;7.80;99.90;;;;;;4992351;28;20049;-90
2024/01/14 09:01:55;;;;;;;1.83;1.73;;;7.80;99.90;;;;;;4974019;28;20045;-89
2024/01/14 09:04:21;;;;;;;2.00;1.90;;;7.20;99.90;;;;;;4988307;28;20058;-90
2024/01/14 09:06:46;;;;;;;1.95;1.85;;;7.60;99.90;;;;;;4973004;28;20049;-89
2024/01/14 09:09:12;;;;;;;1.95;1.85;;;7.70;99.90;;;;;;4974781;28;20937;-92
2024/01/14 09:11:45;;;;;;;2.00;1.90;;;7.30;99.90;;;;;;4978447;28;20056;-92
2024/01/14 09:14:11;;;;;;;2.00;1.90;;;7.90;99.90;;;;;;4993262;28;20061;-90
2024/01/14 09:16:37;;;;;;;1.40;1.35;;;7.50;99.90;;;;;;4975580;28;20614;-88
2024/01/14 09:19:03;;;;;;;1.60;1.50;;;7.80;99.90;;;;;;4990423;28;20403;-91
2024/01/14 09:21:28;;;;;;;1.95;1.85;;;7.60;99.90;;;;;;4978560;28;20041;-90
2024/01/14 09:23:54;;;;;;;1.77;1.67;;;7.60;99.90;;;;;;4992480;28;20053;-90
2024/01/14 09:26:20;;;;;;;1.90;1.80;;;7.90;99.90;;;;;;4976834;28;20049;-90
2024/01/14 09:28:46;;;;;;;1.60;1.50;;;7.60;99.90;;;;;;4978198;28;20096;-89
2024/01/14 09:31:12;;;;;;;1.85;1.75;;;7.90;99.90;;;;;;4975848;28;20152;-90
2024/01/14 09:33:38;;;;;;;1.90;1.80;;;7.80;99.90;;;;;;4978525;28;20137;-91
2024/01/14 09:36:08;;;;;;;1.73;1.63;;;7.50;99.90;;;;;;4978129;28;20502;-88
2024/01/14 09:38:35;;;;;;;1.42;1.40;;;7.50;99.90;;;;;;4980859;28;20041;-89
2024/01/14 09:41:34;;;;;;;1.60;1.50;;;7.80;99.90;;;;;;4991686;28;20042;-90
2024/01/14 09:44:02;;;;;;;1.90;1.80;;;7.70;99.90;;;;;;4994344;28;20112;-90
2024/01/14 09:46:28;;;;;;;1.67;1.58;;;7.40;99.90;;;;;;4993375;28;20040;-90
2024/01/14 09:48:55;;;;;;;1.95;1.85;;;7.80;99.90;;;;;;4992226;28;20133;-89
2024/01/14 09:51:25;;;;;;;2.05;1.95;;;7.50;99.90;;;;;;4976547;28;20049;-90
2024/01/14 09:53:51;;;;;;;1.92;1.83;;;7.70;99.90;;;;;;4974515;28;20045;-90
2024/01/14 09:56:18;;;;;;;2.03;1.92;;;7.50;99.90;;;;;;4974538;28;20549;-90
2024/01/14 09:58:45;;;;;;;1.33;1.33;;;7.70;99.90;;;;;;4989561;28;20046;-89
2024/01/14 10:01:20;;;;;;;1.83;1.73;;;7.50;99.90;;;;;;4975014;28;20081;-89
2024/01/14 10:03:46;;;;;;;1.90;1.80;;;7.40;99.90;;;;;;4989851;28;20049;-90
2024/01/14 10:06:13;;;;;;;1.98;1.88;;;7.60;99.90;;;;;;4975764;28;20053;-89
2024/01/14 10:08:38;;;;;;;1.52;1.42;;;7.70;99.90;;;;;;4977121;28;20052;-90
2024/01/14 10:11:05;;;;;;;2.10;2.00;;;7.70;99.90;;;;;;4975648;28;20043;-91
2024/01/14 10:13:31;;;;;;;1.90;1.80;;;7.40;99.90;;;;;;4991450;28;20103;-91
2024/01/14 10:15:58;;;;;;;1.38;1.33;;;7.70;99.90;;;;;;4995802;28;20081;-90
2024/01/14 10:18:24;;;;;;;1.70;1.60;;;7.50;99.90;;;;;;4993061;28;20491;-90
2024/01/14 10:20:50;;;;;;;1.30;1.30;;;7.50;99.90;;;;;;4996020;28;20095;-90
2024/01/14 10:23:16;;;;;;;1.50;1.40;;;7.90;99.90;;;;;;4977859;28;20046;-90
2024/01/14 10:25:42;;;;;;;1.48;1.40;;;7.50;99.90;;;;;;4976147;28;20050;-89
2024/01/14 10:28:08;;;;;;;1.95;1.85;;;7.50;99.90;;;;;;4995807;28;20053;-89
2024/01/14 10:30:34;;;;;;;1.90;1.80;;;7.80;99.90;;;;;;4993629;28;20045;-89
2024/01/14 10:33:02;;;;;;;1.80;1.70;;;7.90;99.90;;;;;;4992184;28;20065;-91
2024/01/14 10:35:28;;;;;;;1.55;1.45;;;7.90;99.90;;;;;;4992995;28;20046;-89
2024/01/14 10:37:54;;;;;;;1.92;1.83;;;7.50;99.90;;;;;;4993835;28;20057;-88
2024/01/14 10:40:20;;;;;;;1.70;1.60;;;7.60;99.90;;;;;;4994274;28;20040;-90
2024/01/14 10:42:46;;;;;;;1.80;1.70;;;7.80;99.90;;;;;;4975880;28;20049;-89
2024/01/14 10:45:12;;;;;;;1.75;1.65;;;7.70;99.90;;;;;;4978287;28;20041;-89
2024/01/14 10:47:45;;;;;;;2.15;2.05;;;7.60;99.90;;;;;;4992282;28;20084;-89
2024/01/14 10:50:12;;;;;;;1.63;1.52;;;7.40;99.90;;;;;;4978102;28;20049;-89
2024/01/14 10:52:42;;;;;;;2.17;2.08;;;7.90;99.90;;;;;;4991833;28;20049;-89
2024/01/14 10:55:43;;;;;;;1.58;1.48;;;7.80;99.90;;;;;;4976206;28;20099;-88
2024/01/14 10:58:17;;;;;;;2.05;1.95;;;7.70;99.90;;;;;;4980707;28;20045;-89
2024/01/14 11:00:49;;;;;;;1.95;1.85;;;7.70;99.90;;;;;;4990283;28;20129;-88
2024/01/14 11:03:15;;;;;;;1.92;1.83;;;7.80;99.90;;;;;;4977832;28;20052;-89
2024/01/14 11:05:41;;;;;;;1.92;1.83;;;7.90;99.90;;;;;;4975591;28;20041;-88
2024/01/14 11:08:11;;;;;;;2.05;1.95;;;7.80;99.90;;;;;;4976470;28;20042;-89
2024/01/14 11:10:38;;;;;;;1.55;1.45;;;7.50;99.90;;;;;;4995253;28;20136;-91
2024/01/14 11:13:26;;;;;;;2.15;2.05;;;7.90;99.90;;;;;;4976873;28;20507;-91
2024/01/14 11:15:59;;;;;;;1.88;1.77;;;7.50;99.90;;;;;;4980394;28;20053;-92
2024/01/14 11:18:48;;;;;;;1.95;1.85;;;7.90;99.90;;;;;;4998820;28;20042;-90
2024/01/14 11:21:20;;;;;;;2.10;2.00;;;7.50;99.90;;;;;;4974283;28;20414;-90
2024/01/14 11:23:47;;;;;;;1.70;1.60;;;7.90;99.90;;;;;;4979987;28;20046;-91
2024/01/14 11:26:12;;;;;;;2.10;2.00;;;7.70;99.90;;;;;;4981921;28;20049;-91
2024/01/14 11:28:43;;;;;;;2.00;1.90;;;7.80;99.90;;;;;;4976896;28;20046;-89
2024/01/14 11:31:08;;;;;;;1.70;1.60;;;7.90;99.90;;;;;;4981474;28;20047;-89
2024/01/14 11:33:46;;;;;;;2.13;2.03;;;7.50;99.90;;;;;;4995387;28;20037;-90
2024/01/14 11:36:13;;;;;;;2.10;2.00;;;7.70;99.90;;;;;;4993858;28;20042;-88
2024/01/14 11:38:44;;;;;;;1.95;1.85;;;7.80;99.90;;;;;;4981853;28;20057;-90
2024/01/14 11:41:30;;;;;;;1.75;1.65;;;7.80;99.90;;;;;;4993515;28;20041;-91
2024/01/14 11:44:10;;;;;;;1.50;1.40;;;7.40;99.90;;;;;;4974616;28;20046;-89
2024/01/14 11:46:36;;;;;;;1.70;1.60;;;7.40;99.90;;;;;;4972590;28;20099;-90
2024/01/14 11:49:05;;;;;;;1.50;1.40;;;7.50;99.90;;;;;;4975903;28;20084;-90
2024/01/14 11:51:32;;;;;;;2.10;2.00;;;7.50;99.90;;;;;;4979864;28;20046;-89
2024/01/14 11:54:00;;;;;;;2.13;2.03;;;7.60;99.90;;;;;;4980309;28;20053;-90
2024/01/14 11:56:30;;;;;;;1.75;1.65;;;7.50;99.90;;;;;;4980693;28;20042;-89
2024/01/14 11:58:59;;;;;;;2.10;2.00;;;7.70;99.90;;;;;;4991496;28;20107;-87
2024/01/14 12:01:28;;;;;;;2.00;1.90;;;7.80;99.90;;;;;;4980273;28;20085;-88
2024/01/14 12:04:02;;;;;;;1.92;1.83;;;7.80;99.90;;;;;;4980414;28;20046;-89
2024/01/14 12:06:29;;;;;;;1.75;1.65;;;7.90;99.90;;;;;;4978881;28;20038;-92
2024/01/14 12:09:01;;;;;;;1.88;1.77;;;7.40;99.90;;;;;;4977726;28;20070;-90
2024/01/14 12:11:27;;;;;;;2.20;2.10;;;7.80;99.90;;;;;;4980585;28;20045;-89
2024/01/14 12:13:52;;;;;;;2.03;1.92;;;7.40;99.90;;;;;;4998733;28;20053;-89
2024/01/14 12:16:18;;;;;;;2.05;1.95;;;7.90;99.90;;;;;;4997178;28;20053;-91
2024/01/14 12:18:45;;;;;;;1.30;1.30;;;7.40;99.90;;;;;;4997013;28;20484;-90
2024/01/14 12:21:11;;;;;;;2.08;1.98;;;7.70;99.90;;;;;;4982064;28;20120;-90
2024/01/14 12:23:37;;;;;;;1.70;1.60;;;7.70;99.90;;;;;;4977653;28;20045;-91
2024/01/14 12:26:06;;;;;;;2.15;2.05;;;7.40;99.90;;;;;;4997266;28;20402;-89
2024/01/14 12:28:32;;;;;;;2.08;1.98;;;7.20;99.90;;;;;;4982419;28;20050;-90
2024/01/14 12:30:58;;;;;;;2.03;1.92;;;7.50;99.90;;;;;;4979774;28;20045;-90
2024/01/14 12:33:24;;;;;;;1.50;1.40;;;7.60;99.90;;;;;;4979692;28;20045;-90
2024/01/14 12:35:49;;;;;;;1.50;1.40;;;7.30;99.90;;;;;;4978417;28;20045;-90
2024/01/14 12:38:15;;;;;;;2.00;1.90;;;7.30;99.90;;;;;;4981174;28;20452;-89
2024/01/14 12:40:41;;;;;;;1.83;1.73;;;7.30;99.90;;;;;;4979127;28;20403;-90
2024/01/14 12:43:07;;;;;;;1.60;1.50;;;7.80;99.90;;;;;;4981287;28;20487;-92
2024/01/14 12:45:35;;;;;;;1.95;1.85;;;7.70;99.90;;;;;;4994493;28;20095;-88
2024/01/14 12:48:02;;;;;;;1.55;1.45;;;7.30;99.90;;;;;;4995428;28;20052;-90
2024/01/14 12:50:36;;;;;;;2.00;1.90;;;7.50;99.90;;;;;;4978163;28;20034;-91
2024/01/14 12:53:10;;;;;;;1.50;1.40;;;7.70;99.90;;;;;;4977555;28;20563;-89
2024/01/14 12:55:35;;;;;;;1.95;1.85;;;7.70;99.90;;;;;;5010406;28;20060;-90
2024/01/14 12:58:02;;;;;;;4.32;4.03;;;7.40;99.90;;;;;;4981056;28;20045;-91